Mound, Texas
Current Conditions -  °F | °C
As of 10:55 AM on Saturday 25 Oct 2014 (Local Time) from KGOP Reporting Station
Clear Clear  
Wind Chill: 75°   Ceiling: Unl
Heat Index: 75°   Visibility: 10mi
Dew Point: 61°   Wind: 3mph
Humidity: 61%   Direction: 240°WSW
Pressure: 30.21"   Gusts: NA
Location:  31.35°N, 97.64°W
Report Text: KGOP 251555Z AUTO 24003KT 10SM CLR 24/16 A3021 RMK AO2
Loading
Personal Weather Stations






























Interactive Weather Map New forecast layout! Learn more

10-Day Weather Forecast

Advertisements
Track Severe Weather on mobile